Time;durP1;ratioP1;P1;durP2;ratioP2;P2;SDS_P1;SDS_P2;PMS_P1;PMS_P2;Temp;Humidity;BMP_temperature;BMP_pressure;BME280_temperature;BME280_humidity;BME280_pressure;Samples;Min_cycle;Max_cycle;Signal;HPM_P1;HPM_P2
2023/08/13 00:02:03;;;;;;;6.97;1.75;;;;;;;17.69;90.86;101659.63;5036752;28;20417;-76
2023/08/13 00:04:28;;;;;;;7.00;1.70;;;;;;;17.70;91.10;101647.22;5036234;28;20101;-76
2023/08/13 00:06:54;;;;;;;6.25;1.90;;;;;;;17.69;91.04;101642.91;5036676;28;20033;-76
2023/08/13 00:09:19;;;;;;;8.68;2.17;;;;;;;17.69;91.29;101653.50;5035827;28;20461;-76
2023/08/13 00:11:45;;;;;;;6.63;2.10;;;;;;;17.67;91.21;101653.56;5036576;28;20040;-76
2023/08/13 00:14:10;;;;;;;8.23;2.05;;;;;;;17.68;91.18;101652.59;5036586;28;20037;-76
2023/08/13 00:16:36;;;;;;;7.07;1.70;;;;;;;17.66;91.28;101638.59;5035453;28;20324;-76
2023/08/13 00:19:02;;;;;;;5.85;1.67;;;;;;;17.66;91.37;101638.59;5036296;28;20324;-76
2023/08/13 00:21:27;;;;;;;5.75;1.90;;;;;;;17.65;91.34;101648.34;5035772;28;20033;-76
2023/08/13 00:23:53;;;;;;;6.72;1.90;;;;;;;17.64;91.48;101645.78;5036221;28;20025;-76
2023/08/13 00:26:18;;;;;;;7.78;1.98;;;;;;;17.63;91.39;101644.09;5035727;28;20048;-76
2023/08/13 00:28:43;;;;;;;9.10;2.03;;;;;;;17.61;91.52;101641.53;5036638;28;20029;-76
2023/08/13 00:31:09;;;;;;;10.27;2.35;;;;;;;17.61;91.57;101643.34;5036192;28;20068;-76
2023/08/13 00:33:34;;;;;;;6.68;2.00;;;;;;;17.60;91.59;101634.53;5035598;28;20359;-76
2023/08/13 00:35:59;;;;;;;7.97;2.45;;;;;;;17.59;91.82;101640.78;5035153;28;20423;-76
2023/08/13 00:38:25;;;;;;;3.85;1.83;;;;;;;17.60;91.77;101638.97;5035279;28;20033;-76
2023/08/13 00:40:50;;;;;;;6.47;2.17;;;;;;;17.58;91.75;101635.56;5035810;28;20075;-76
2023/08/13 00:43:16;;;;;;;6.70;2.80;;;;;;;17.59;91.87;101639.91;5035856;28;20254;-76
2023/08/13 00:45:42;;;;;;;4.47;1.50;;;;;;;17.57;92.10;101637.38;5017536;28;20040;-76
2023/08/13 00:48:08;;;;;;;6.97;1.92;;;;;;;17.57;92.00;101631.19;5035807;28;20356;-76
2023/08/13 00:50:34;;;;;;;4.72;1.70;;;;;;;17.56;91.81;101635.66;5035012;28;20075;-76
2023/08/13 00:53:00;;;;;;;8.02;2.42;;;;;;;17.56;91.97;101643.59;5035713;28;20092;-76
2023/08/13 00:55:26;;;;;;;7.32;1.80;;;;;;;17.56;92.04;101640.09;5035215;28;20108;-76
2023/08/13 00:57:51;;;;;;;5.32;1.90;;;;;;;17.54;91.98;101634.03;5035637;28;20033;-76
2023/08/13 01:00:18;;;;;;;5.65;2.00;;;;;;;17.53;92.10;101633.16;5035031;28;20037;-76
2023/08/13 01:05:23;;;;;;;2.88;1.40;;;;;;;17.52;92.11;101635.91;5002097;22;20063;-76
2023/08/13 01:08:16;;;;;;;4.85;2.05;;;;;;;17.51;92.33;101632.41;5036803;28;20087;-76
2023/08/13 01:10:47;;;;;;;13.30;2.50;;;;;;;17.50;92.17;101632.47;5035464;28;20334;-76
2023/08/13 01:13:52;;;;;;;4.43;2.10;;;;;;;17.48;92.29;101637.88;5035147;28;20037;-76
2023/08/13 01:16:19;;;;;;;7.13;2.00;;;;;;;17.48;92.23;101639.66;4994645;28;20049;-76
2023/08/13 01:18:46;;;;;;;8.38;2.40;;;;;;;17.45;92.66;101638.91;5035017;28;20358;-76
2023/08/13 01:21:11;;;;;;;4.85;1.92;;;;;;;17.45;92.49;101649.50;5035606;28;20474;-76
2023/08/13 01:23:37;;;;;;;5.38;2.33;;;;;;;17.44;92.71;101634.56;5035013;28;20339;-76
2023/08/13 01:26:16;;;;;;;4.13;2.10;;;;;;;17.45;92.72;101638.06;5035233;28;20033;-76
2023/08/13 01:28:46;;;;;;;10.20;2.60;;;;;;;17.43;92.90;101638.16;5035388;28;20208;-76
2023/08/13 01:31:18;;;;;;;5.13;2.45;;;;;;;17.42;92.75;101641.72;5034843;28;20025;-76
2023/08/13 01:33:46;;;;;;;10.38;2.80;;;;;;;17.43;92.95;101642.59;5034883;28;20060;-76
2023/08/13 01:36:16;;;;;;;6.80;2.80;;;;;;;17.41;92.98;101647.13;5035054;28;20025;-76
2023/08/13 01:38:43;;;;;;;8.65;2.35;;;;;;;17.40;93.18;101646.25;5035041;28;20079;-76
2023/08/13 01:41:08;;;;;;;8.95;3.00;;;;;;;17.38;93.07;101645.50;5035013;28;20033;-76
2023/08/13 01:43:33;;;;;;;8.38;2.58;;;;;;;17.38;93.15;101645.50;5034531;28;20039;-76
2023/08/13 01:46:00;;;;;;;4.90;2.42;;;;;;;17.36;93.36;101634.13;5034646;28;20060;-76
2023/08/13 01:48:25;;;;;;;9.70;2.97;;;;;;;17.35;93.46;101643.00;5034174;28;20037;-76
2023/08/13 01:50:51;;;;;;;6.75;2.22;;;;;;;17.36;93.36;101641.22;5035447;28;20213;-76
2023/08/13 01:53:16;;;;;;;10.10;2.65;;;;;;;17.34;93.65;101643.13;5034179;28;20037;-76
2023/08/13 01:55:41;;;;;;;9.70;2.00;;;;;;;17.34;93.59;101630.72;5034965;28;20025;-76
2023/08/13 01:58:07;;;;;;;5.65;1.55;;;;;;;17.34;93.68;101641.31;5034720;28;20033;-76
2023/08/13 02:00:33;;;;;;;11.43;2.75;;;;;;;17.34;93.82;101636.03;5033812;28;20041;-76
2023/08/13 02:02:59;;;;;;;6.45;2.25;;;;;;;17.34;94.01;101632.53;5034684;28;20041;-76
2023/08/13 02:05:24;;;;;;;8.13;2.40;;;;;;;17.32;94.39;101632.59;5034277;28;20505;-76
2023/08/13 02:07:49;;;;;;;3.35;1.75;;;;;;;17.33;94.11;101631.66;5034594;28;20068;-76
2023/08/13 02:10:15;;;;;;;4.30;1.80;;;;;;;17.33;94.00;101626.34;5034461;28;20320;-76
2023/08/13 02:12:40;;;;;;;9.57;2.50;;;;;;;17.33;93.92;101631.66;5034484;28;20343;-76
2023/08/13 02:15:06;;;;;;;6.70;2.33;;;;;;;17.32;94.07;101624.66;5016494;28;20033;-76
2023/08/13 02:17:31;;;;;;;5.50;2.28;;;;;;;17.32;94.25;101624.66;5033659;28;20037;-76
2023/08/13 02:19:57;;;;;;;8.55;2.00;;;;;;;17.34;94.26;101621.94;5034175;28;20101;-76
2023/08/13 02:22:23;;;;;;;7.32;2.20;;;;;;;17.32;94.20;101629.97;5034020;28;20071;-76
2023/08/13 02:24:48;;;;;;;5.40;2.13;;;;;;;17.33;94.09;101630.81;5034424;28;20084;-76
2023/08/13 02:27:13;;;;;;;7.72;1.83;;;;;;;17.33;94.17;101620.22;5034133;28;20060;-76
2023/08/13 02:29:39;;;;;;;8.07;2.08;;;;;;;17.34;94.32;101621.94;5015959;28;20063;-76
2023/08/13 02:32:04;;;;;;;5.30;1.80;;;;;;;17.33;94.16;101625.50;5034112;28;20048;-76
2023/08/13 02:34:33;;;;;;;6.97;2.10;;;;;;;17.32;94.33;101619.38;5033902;28;20204;-76
2023/08/13 02:37:00;;;;;;;8.68;2.13;;;;;;;17.32;94.44;101619.38;5034481;28;20037;-76
2023/08/13 02:39:25;;;;;;;4.07;2.00;;;;;;;17.32;94.55;101629.97;5033923;28;20344;-76
2023/08/13 02:41:50;;;;;;;5.50;1.95;;;;;;;17.31;94.53;101625.59;5034587;28;20033;-76
2023/08/13 02:44:16;;;;;;;5.28;1.70;;;;;;;17.31;94.67;101622.94;5033828;28;20026;-76
2023/08/13 02:46:41;;;;;;;6.93;2.00;;;;;;;17.30;94.65;101615.97;5034481;28;20075;-76
2023/08/13 02:49:07;;;;;;;8.48;2.75;;;;;;;17.30;94.66;101613.31;5034170;28;20040;-76
2023/08/13 02:51:33;;;;;;;3.45;1.52;;;;;;;17.29;94.62;101618.69;5033179;28;20037;-76
2023/08/13 02:53:58;;;;;;;4.15;1.50;;;;;;;17.29;94.87;101608.09;5034196;28;20037;-76
2023/08/13 02:56:23;;;;;;;7.00;1.88;;;;;;;17.27;94.82;101611.69;5033642;28;20116;-76
2023/08/13 02:58:49;;;;;;;3.78;1.67;;;;;;;17.29;94.75;101610.75;5035943;28;20339;-76
2023/08/13 03:01:14;;;;;;;6.43;1.75;;;;;;;17.27;94.82;101608.19;5038292;28;20056;-76
2023/08/13 03:03:40;;;;;;;6.40;1.90;;;;;;;17.27;94.89;101619.63;5037031;28;20045;-76
2023/08/13 03:06:05;;;;;;;12.45;2.25;;;;;;;17.27;94.98;101621.41;5019907;28;20033;-76
2023/08/13 03:08:30;;;;;;;5.55;1.70;;;;;;;17.25;95.12;101618.00;5037278;28;20041;-76
2023/08/13 03:10:56;;;;;;;8.70;2.20;;;;;;;17.25;95.01;101618.00;5037597;28;20040;-76
2023/08/13 03:13:21;;;;;;;5.05;1.65;;;;;;;17.23;95.08;101615.44;5036941;28;20231;-76
2023/08/13 03:15:47;;;;;;;4.70;1.65;;;;;;;17.24;94.91;101619.78;5037634;28;20084;-76
2023/08/13 03:18:13;;;;;;;5.88;1.85;;;;;;;17.23;94.97;101615.44;5019186;28;20630;-76
2023/08/13 03:20:38;;;;;;;4.05;1.58;;;;;;;17.23;94.93;101614.59;5036936;28;20340;-76
2023/08/13 03:23:04;;;;;;;5.43;1.95;;;;;;;17.22;95.30;101610.22;5037636;28;20044;-76
2023/08/13 03:25:30;;;;;;;7.93;1.88;;;;;;;17.21;95.13;101612.03;5037124;28;20037;-76
2023/08/13 03:27:55;;;;;;;5.22;1.80;;;;;;;17.22;95.11;101602.28;5037227;28;20351;-76
2023/08/13 03:30:20;;;;;;;9.35;2.63;;;;;;;17.21;95.38;101608.53;5036700;28;20033;-76
2023/08/13 03:32:46;;;;;;;5.97;2.15;;;;;;;17.20;95.18;101606.81;5037154;28;20037;-76
2023/08/13 03:35:11;;;;;;;7.13;2.10;;;;;;;17.19;95.49;101608.63;5036937;28;20288;-76
2023/08/13 03:37:37;;;;;;;7.40;1.83;;;;;;;17.19;95.38;101597.16;5036747;28;20057;-76
2023/08/13 03:40:02;;;;;;;7.18;1.95;;;;;;;17.19;95.42;101613.03;5037207;28;20053;-76
2023/08/13 03:42:28;;;;;;;4.13;1.65;;;;;;;17.18;95.44;101609.56;5036762;28;20255;-76
2023/08/13 03:44:55;;;;;;;4.40;1.58;;;;;;;17.17;95.44;101602.56;5036983;28;20060;-76
2023/08/13 03:47:20;;;;;;;3.65;1.98;;;;;;;17.16;95.41;101600.84;5018590;28;20283;-76
2023/08/13 03:49:45;;;;;;;4.32;1.40;;;;;;;17.17;95.71;101607.88;5036680;28;20052;-76
2023/08/13 03:52:11;;;;;;;5.05;1.67;;;;;;;17.16;95.47;101602.66;5036962;28;20049;-76
2023/08/13 03:54:36;;;;;;;4.20;1.90;;;;;;;17.16;95.53;101607.94;5036299;28;20314;-76
2023/08/13 03:57:02;;;;;;;4.97;1.70;;;;;;;17.14;95.48;101615.97;5036704;28;20412;-76
2023/08/13 03:59:27;;;;;;;7.05;1.85;;;;;;;17.14;95.57;101617.78;5036186;28;20320;-76
2023/08/13 04:01:53;;;;;;;6.80;1.85;;;;;;;17.12;95.59;101622.25;5036667;28;20335;-76
2023/08/13 04:04:18;;;;;;;5.38;1.58;;;;;;;17.11;95.62;101620.56;5035468;28;20247;-76
2023/08/13 04:06:43;;;;;;;4.47;1.55;;;;;;;17.11;95.76;101628.53;5036715;28;20041;-76
2023/08/13 04:09:09;;;;;;;5.63;2.42;;;;;;;17.11;95.54;101625.88;5036698;28;20104;-76
2023/08/13 04:11:35;;;;;;;3.25;1.70;;;;;;;17.10;95.79;101626.78;5017201;28;20037;-76
2023/08/13 04:14:00;;;;;;;9.35;2.20;;;;;;;17.07;95.89;101633.97;5036465;28;20036;-76
2023/08/13 04:16:26;;;;;;;5.25;1.73;;;;;;;17.07;95.81;101631.31;5036011;28;20029;-76
2023/08/13 04:18:52;;;;;;;7.93;1.85;;;;;;;17.06;95.97;101627.00;5036183;28;20041;-76
2023/08/13 04:21:17;;;;;;;4.63;1.98;;;;;;;17.06;96.37;101639.34;5035554;28;20044;-76
2023/08/13 04:23:43;;;;;;;6.78;1.75;;;;;;;17.05;96.47;101641.16;5036209;28;20405;-76
2023/08/13 04:26:08;;;;;;;7.90;1.95;;;;;;;17.05;96.64;101629.72;5036703;28;20033;-76
2023/08/13 04:28:34;;;;;;;8.23;2.00;;;;;;;17.04;96.54;101636.78;5035501;28;20041;-76
2023/08/13 04:30:59;;;;;;;4.07;1.30;;;;;;;17.04;96.71;101636.78;5036236;28;20347;-76
2023/08/13 04:33:25;;;;;;;6.80;2.38;;;;;;;17.04;96.72;101641.22;5035592;28;20076;-76
2023/08/13 04:35:54;;;;;;;5.15;1.80;;;;;;;17.03;96.97;101643.03;5035851;28;20060;-76
2023/08/13 04:38:23;;;;;;;7.10;1.95;;;;;;;17.03;96.83;101640.38;5035721;28;20128;-76
2023/08/13 04:40:48;;;;;;;4.88;1.70;;;;;;;17.03;97.00;101642.19;5035949;28;20038;-76
2023/08/13 04:43:15;;;;;;;4.88;1.75;;;;;;;17.03;97.05;101650.13;5035784;28;20025;-76
2023/08/13 04:45:40;;;;;;;5.55;1.77;;;;;;;17.02;97.20;101645.75;5035529;28;20364;-76
2023/08/13 04:48:06;;;;;;;7.43;1.92;;;;;;;17.03;97.04;101644.81;5035412;28;20327;-76
2023/08/13 04:50:32;;;;;;;6.60;1.50;;;;;;;17.03;97.08;101650.13;5034867;28;20319;-76
2023/08/13 04:52:58;;;;;;;7.40;1.75;;;;;;;17.02;97.08;101648.41;5035721;28;20347;-76
2023/08/13 04:55:23;;;;;;;4.90;1.70;;;;;;;17.01;97.15;101649.34;5035311;28;20101;-76
2023/08/13 04:57:48;;;;;;;3.17;1.23;;;;;;;17.01;97.21;101650.19;5035762;28;20271;-76
2023/08/13 05:00:14;;;;;;;5.72;1.83;;;;;;;17.01;97.15;101646.72;5017641;28;20033;-76
2023/08/13 05:02:39;;;;;;;4.35;1.70;;;;;;;17.00;97.19;101653.78;5035322;28;20029;-76
2023/08/13 05:05:05;;;;;;;7.82;1.52;;;;;;;17.00;97.21;101648.47;5035222;28;20093;-76
2023/08/13 05:07:31;;;;;;;5.85;2.20;;;;;;;16.99;97.12;101649.44;5034885;28;20033;-76
2023/08/13 05:09:56;;;;;;;7.25;2.05;;;;;;;16.99;97.37;101646.78;5034270;28;20030;-76
2023/08/13 05:12:21;;;;;;;8.48;1.83;;;;;;;16.98;97.31;101647.72;5035359;28;20036;-76
2023/08/13 05:14:47;;;;;;;8.38;2.03;;;;;;;16.98;97.47;101647.72;5035519;28;20037;-76
2023/08/13 05:17:19;;;;;;;4.47;1.30;;;;;;;16.98;97.61;101636.28;5034851;28;20080;-76
2023/08/13 05:19:45;;;;;;;6.00;1.90;;;;;;;16.97;97.68;101646.03;5035040;28;20064;-76
2023/08/13 05:22:11;;;;;;;3.65;1.70;;;;;;;16.97;97.71;101643.38;5034964;28;20021;-76
2023/08/13 05:24:36;;;;;;;3.72;1.40;;;;;;;16.97;98.01;101639.84;5034950;28;20071;-76
2023/08/13 05:27:03;;;;;;;4.80;1.73;;;;;;;16.96;98.02;101644.28;5017151;28;20100;-76
2023/08/13 05:29:28;;;;;;;5.65;2.00;;;;;;;16.96;97.72;101636.34;5034520;28;20037;-76
2023/08/13 05:31:54;;;;;;;3.00;1.50;;;;;;;16.97;97.90;101637.22;5035089;28;20064;-76
2023/08/13 05:34:19;;;;;;;5.22;1.70;;;;;;;16.97;98.02;101648.66;5032839;28;20301;-76
2023/08/13 05:36:44;;;;;;;5.15;1.85;;;;;;;16.97;98.13;101639.84;5034973;28;20025;-76
2023/08/13 05:39:10;;;;;;;4.38;1.35;;;;;;;16.96;98.14;101631.06;5035430;28;20040;-76
2023/08/13 05:41:36;;;;;;;6.63;2.17;;;;;;;16.97;98.19;101634.56;5034601;28;20786;-76
2023/08/13 05:44:02;;;;;;;7.03;1.90;;;;;;;16.97;98.32;101637.22;5035263;28;20029;-76
2023/08/13 05:46:27;;;;;;;4.85;1.30;;;;;;;16.97;98.37;101630.16;5034428;28;20347;-76
2023/08/13 05:48:53;;;;;;;8.40;1.98;;;;;;;16.98;98.28;101638.94;5034857;28;20044;-76
2023/08/13 05:51:18;;;;;;;5.88;1.58;;;;;;;16.98;98.34;101633.63;5034269;28;20122;-76
2023/08/13 05:53:44;;;;;;;11.18;1.67;;;;;;;16.98;98.64;101642.41;5034595;28;20041;-76
2023/08/13 05:56:09;;;;;;;2.70;1.40;;;;;;;17.00;98.42;101634.41;5034750;28;20056;-76
2023/08/13 05:58:35;;;;;;;5.40;1.45;;;;;;;17.01;98.43;101641.41;5034251;28;20025;-76
2023/08/13 06:01:00;;;;;;;5.70;1.58;;;;;;;17.01;98.39;101647.56;5034413;28;20350;-76
2023/08/13 06:03:25;;;;;;;6.43;1.77;;;;;;;17.02;98.50;101649.25;5033972;28;20024;-76
2023/08/13 06:05:51;;;;;;;7.70;1.85;;;;;;;17.03;98.31;101655.41;5034084;28;20053;-76
2023/08/13 06:08:16;;;;;;;6.90;2.13;;;;;;;17.03;98.43;101650.97;5033768;28;20025;-76
2023/08/13 06:10:42;;;;;;;4.90;2.05;;;;;;;17.04;98.19;101643.88;5034295;28;20080;-76
2023/08/13 06:13:07;;;;;;;4.10;1.38;;;;;;;17.05;98.22;101651.72;5034254;28;20037;-76
2023/08/13 06:15:33;;;;;;;5.50;2.00;;;;;;;17.05;98.39;101649.09;5033640;28;20044;-76
2023/08/13 06:17:58;;;;;;;5.00;1.55;;;;;;;17.06;98.40;101652.56;5034255;28;20067;-76
2023/08/13 06:20:24;;;;;;;6.18;1.80;;;;;;;17.07;98.41;101646.34;5033386;28;20033;-76
2023/08/13 06:22:49;;;;;;;8.13;1.80;;;;;;;17.08;98.65;101648.91;5034442;28;20232;-76
2023/08/13 06:25:15;;;;;;;11.40;1.70;;;;;;;17.09;98.54;101649.78;5033755;28;20037;-76
2023/08/13 06:27:40;;;;;;;2.88;1.52;;;;;;;17.11;98.64;101652.34;5033777;28;20033;-76
2023/08/13 06:30:06;;;;;;;2.83;1.30;;;;;;;17.11;98.58;101642.59;5033901;28;20035;-76
2023/08/13 06:32:32;;;;;;;7.88;1.88;;;;;;;17.11;98.39;101647.88;5032958;28;20041;-76
2023/08/13 06:34:57;;;;;;;2.53;1.00;;;;;;;17.12;98.42;101644.31;5033505;28;20037;-76
2023/08/13 06:37:22;;;;;;;5.93;1.52;;;;;;;17.14;98.34;101637.13;5033329;28;20037;-76
2023/08/13 06:39:48;;;;;;;3.72;1.60;;;;;;;17.16;98.28;101645.00;5033696;28;20144;-76
2023/08/13 06:42:13;;;;;;;5.72;1.70;;;;;;;17.17;98.32;101650.22;5034167;28;20083;-76
2023/08/13 06:44:39;;;;;;;7.72;2.30;;;;;;;17.20;98.93;101649.19;5033645;28;20096;-76
2023/08/13 06:47:05;;;;;;;2.85;1.42;;;;;;;17.21;98.90;101656.19;5033605;28;20216;-76
2023/08/13 06:49:30;;;;;;;5.32;1.65;;;;;;;17.21;98.87;101653.53;5033472;28;20106;-76
2023/08/13 06:51:55;;;;;;;7.07;1.77;;;;;;;17.22;99.06;101649.94;5033883;28;20224;-76
2023/08/13 06:54:21;;;;;;;4.30;1.70;;;;;;;17.23;99.03;101652.50;5033366;28;20033;-76
2023/08/13 06:56:46;;;;;;;1.83;1.27;;;;;;;17.24;98.92;101651.53;5034081;28;20044;-76
2023/08/13 06:59:12;;;;;;;5.78;1.85;;;;;;;17.26;98.84;101652.34;5033416;28;20033;-76
2023/08/13 07:01:37;;;;;;;5.32;1.92;;;;;;;17.26;98.86;101649.69;5033086;28;20156;-76
2023/08/13 07:04:03;;;;;;;6.45;2.20;;;;;;;17.29;98.73;101647.81;5033687;28;20111;-76
2023/08/13 07:06:29;;;;;;;9.38;2.60;;;;;;;17.31;98.64;101654.72;5033298;28;20037;-76
2023/08/13 07:08:55;;;;;;;5.72;1.73;;;;;;;17.31;98.70;101645.94;5033946;28;20034;-76
2023/08/13 07:11:20;;;;;;;6.07;1.75;;;;;;;17.33;98.70;101646.69;5033091;28;20037;-76
2023/08/13 07:13:50;;;;;;;3.50;1.30;;;;;;;17.34;98.82;101649.25;5033733;28;20037;-76
2023/08/13 07:16:15;;;;;;;3.47;1.23;;;;;;;17.35;98.62;101650.94;5033309;28;20099;-76
2023/08/13 07:18:42;;;;;;;6.00;1.63;;;;;;;17.38;98.23;101649.94;5033205;28;20045;-76
2023/08/13 07:21:08;;;;;;;3.20;1.45;;;;;;;17.38;98.42;101652.59;5033500;28;20100;-76
2023/08/13 07:23:34;;;;;;;8.77;2.85;;;;;;;17.40;98.39;101654.19;5015274;28;20022;-76
2023/08/13 07:26:00;;;;;;;4.30;1.48;;;;;;;17.42;98.46;101652.31;5033816;28;20060;-76
2023/08/13 07:28:25;;;;;;;3.72;1.30;;;;;;;17.43;98.41;101655.84;5033482;28;20038;-76
2023/08/13 07:30:51;;;;;;;3.65;1.70;;;;;;;17.44;98.26;101658.41;5033652;28;20044;-76
2023/08/13 07:33:16;;;;;;;2.30;1.30;;;;;;;17.46;98.06;101667.09;5033399;28;20033;-76
2023/08/13 07:35:41;;;;;;;3.05;1.40;;;;;;;17.48;98.02;101664.34;5033299;28;20119;-76
2023/08/13 07:38:07;;;;;;;6.85;2.50;;;;;;;17.50;97.93;101653.66;5033631;28;20069;-76
2023/08/13 07:40:33;;;;;;;5.38;1.30;;;;;;;17.51;97.86;101661.53;5033009;28;20063;-76
2023/08/13 07:42:59;;;;;;;5.72;1.58;;;;;;;17.53;97.72;101664.09;5016176;28;20112;-76
2023/08/13 07:45:25;;;;;;;3.90;1.38;;;;;;;17.55;97.85;101651.63;5035037;28;20028;-76
2023/08/13 07:47:51;;;;;;;3.78;1.35;;;;;;;17.56;97.86;101656.00;5041668;28;20037;-76
2023/08/13 07:50:16;;;;;;;4.15;1.40;;;;;;;17.57;97.53;101658.56;5034170;28;20056;-76
2023/08/13 07:52:42;;;;;;;2.22;0.90;;;;;;;17.59;97.39;101656.66;5035062;28;20044;-76
2023/08/13 07:55:08;;;;;;;2.83;1.30;;;;;;;17.61;97.22;101665.38;5035202;28;20029;-76
2023/08/13 07:57:33;;;;;;;4.32;1.40;;;;;;;17.63;97.25;101662.66;5033927;28;20037;-76
2023/08/13 07:59:59;;;;;;;3.55;1.35;;;;;;;17.65;97.22;101658.09;5034508;28;20025;-76
2023/08/13 08:02:25;;;;;;;3.08;1.20;;;;;;;17.68;96.74;101665.00;5034483;28;20044;-76
2023/08/13 08:04:50;;;;;;;2.33;1.20;;;;;;;17.67;96.78;101658.88;5034375;28;20360;-76
2023/08/13 08:07:18;;;;;;;3.72;1.25;;;;;;;17.70;96.63;101661.34;5016613;28;20025;-76
2023/08/13 08:09:44;;;;;;;5.72;1.58;;;;;;;17.72;96.59;101666.53;5034788;28;20244;-76
2023/08/13 08:12:09;;;;;;;3.30;1.10;;;;;;;17.73;96.63;101661.16;5034285;28;20277;-76
2023/08/13 08:14:34;;;;;;;4.40;0.88;;;;;;;17.75;96.30;101674.31;5034135;28;20037;-76
2023/08/13 08:17:05;;;;;;;2.72;1.20;;;;;;;17.75;96.15;101671.66;5016840;28;20027;-76
2023/08/13 08:19:30;;;;;;;3.47;1.02;;;;;;;17.75;95.66;101672.50;5033545;28;20355;-76
2023/08/13 08:21:56;;;;;;;6.68;1.30;;;;;;;17.76;95.12;101670.75;5034674;28;20056;-76
2023/08/13 08:24:22;;;;;;;5.15;1.40;;;;;;;17.77;95.02;101664.47;5033508;28;20044;-76
2023/08/13 08:26:47;;;;;;;4.72;1.20;;;;;;;17.77;95.05;101668.00;5034347;28;20525;-76
2023/08/13 08:29:13;;;;;;;1.17;0.60;;;;;;;17.78;95.17;101664.41;5016406;28;20106;-76
2023/08/13 08:31:38;;;;;;;2.05;0.90;;;;;;;17.78;94.61;101666.19;5033797;28;20504;-76
2023/08/13 08:34:03;;;;;;;2.50;1.35;;;;;;;17.80;94.69;101666.97;5033942;28;20040;-76
2023/08/13 08:36:29;;;;;;;2.15;0.88;;;;;;;17.79;94.73;101660.81;5032070;28;20100;-76
2023/08/13 08:38:54;;;;;;;4.63;1.27;;;;;;;17.81;94.58;101663.38;5033936;28;20087;-76
2023/08/13 08:41:21;;;;;;;2.55;0.93;;;;;;;17.81;94.54;101658.09;5033259;28;20038;-76
2023/08/13 08:43:48;;;;;;;1.20;0.90;;;;;;;17.81;94.55;101650.97;5033907;28;20048;-76
2023/08/13 08:46:16;;;;;;;3.15;1.20;;;;;;;17.81;94.62;101661.56;5033981;28;20263;-76
2023/08/13 08:48:42;;;;;;;1.98;0.80;;;;;;;17.83;94.64;101662.34;5033782;28;20323;-76
2023/08/13 08:51:08;;;;;;;3.40;1.23;;;;;;;17.84;94.67;101655.22;5033502;28;20033;-76
2023/08/13 08:53:34;;;;;;;2.53;1.10;;;;;;;17.84;94.89;101657.88;5032986;28;20559;-76
2023/08/13 08:56:00;;;;;;;1.35;0.98;;;;;;;17.86;94.83;101665.78;5033174;28;20037;-76
2023/08/13 08:58:25;;;;;;;3.33;1.40;;;;;;;17.86;94.99;101658.69;5032662;28;20041;-76
2023/08/13 09:00:56;;;;;;;3.05;1.27;;;;;;;17.87;95.08;101655.09;5033527;28;20100;-76
2023/08/13 09:03:22;;;;;;;5.20;1.60;;;;;;;17.88;95.12;101663.88;5032971;28;20060;-76
2023/08/13 09:05:48;;;;;;;3.30;1.17;;;;;;;17.89;95.40;101661.16;5033209;28;20359;-76
2023/08/13 09:08:14;;;;;;;4.50;1.35;;;;;;;17.91;95.60;101664.56;5033547;28;20060;-76
2023/08/13 09:10:43;;;;;;;4.85;1.27;;;;;;;17.92;95.46;101655.69;5032639;28;20360;-76
2023/08/13 09:13:09;;;;;;;4.13;1.30;;;;;;;17.93;95.56;101641.47;5033645;28;20213;-76
2023/08/13 09:15:57;;;;;;;5.22;1.92;;;;;;;17.95;95.59;101649.34;5032697;28;20047;-76
2023/08/13 09:18:22;;;;;;;;;;;;;;;17.97;95.69;101647.44;5032729;28;20083;-76
2023/08/13 09:20:48;;;;;;;5.40;1.40;;;;;;;17.99;95.72;101637.59;5032753;28;19917;-76
2023/08/13 09:23:23;;;;;;;8.07;1.50;;;;;;;18.01;95.78;101641.03;5033172;28;20284;-76
2023/08/13 09:25:53;;;;;;;4.88;1.63;;;;;;;18.03;95.86;101639.16;5033116;28;20220;-76
2023/08/13 09:28:19;;;;;;;5.43;1.25;;;;;;;18.06;95.72;101638.94;5032563;28;20213;-76
2023/08/13 09:30:45;;;;;;;1.77;1.00;;;;;;;18.07;96.11;101635.38;5033392;28;20063;-76
2023/08/13 09:33:14;;;;;;;4.20;1.27;;;;;;;18.09;95.73;101628.16;5033209;28;20082;-76
2023/08/13 09:35:40;;;;;;;4.25;1.88;;;;;;;18.12;95.78;101625.34;5032596;28;20097;-76
2023/08/13 09:38:05;;;;;;;4.15;1.75;;;;;;;18.14;95.75;101618.16;5033103;28;20105;-76
2023/08/13 09:40:31;;;;;;;4.18;1.52;;;;;;;18.17;95.84;101620.63;5014487;28;20064;-76
2023/08/13 09:42:58;;;;;;;2.53;1.05;;;;;;;18.19;95.74;101621.38;5032871;28;20099;-76
2023/08/13 09:45:26;;;;;;;2.90;1.33;;;;;;;18.22;95.55;101617.69;5032181;28;20275;-76
2023/08/13 09:47:55;;;;;;;3.22;1.40;;;;;;;18.23;95.59;101612.28;5032054;28;20243;-76
2023/08/13 09:50:24;;;;;;;3.65;1.20;;;;;;;18.26;95.45;101618.34;5031917;28;20029;-76
2023/08/13 09:52:52;;;;;;;2.75;1.00;;;;;;;18.28;95.17;101621.75;5032887;28;20033;-76
2023/08/13 09:55:22;;;;;;;3.45;0.98;;;;;;;18.29;95.11;101610.22;5032048;28;20033;-76
2023/08/13 09:57:50;;;;;;;3.00;0.98;;;;;;;18.31;94.99;101613.63;5014373;28;20037;-76
2023/08/13 10:00:15;;;;;;;1.88;1.15;;;;;;;18.32;94.46;101618.84;5031891;28;20041;-76
2023/08/13 10:02:42;;;;;;;2.80;1.00;;;;;;;18.33;94.62;101623.19;5032122;28;20318;-76
2023/08/13 10:05:08;;;;;;;2.17;0.93;;;;;;;18.35;94.65;101620.44;5032087;28;20046;-76
2023/08/13 10:07:36;;;;;;;3.35;1.10;;;;;;;18.36;94.80;101624.81;5031276;28;20112;-76
2023/08/13 10:10:03;;;;;;;2.10;0.80;;;;;;;18.37;94.57;101626.50;5031955;28;20029;-76
2023/08/13 10:12:30;;;;;;;3.72;1.17;;;;;;;18.38;94.27;101618.44;5031671;28;20044;-76
2023/08/13 10:14:55;;;;;;;5.93;1.30;;;;;;;18.40;94.40;101621.84;5032489;28;20324;-76
2023/08/13 10:17:26;;;;;;;1.85;0.88;;;;;;;18.41;94.34;101610.31;5031431;28;20179;-76
2023/08/13 10:19:55;;;;;;;2.40;0.80;;;;;;;18.42;94.18;101613.81;5032027;28;20332;-76
2023/08/13 10:22:30;;;;;;;;;;;;;;;18.42;94.17;101611.16;5031978;28;20037;-76
2023/08/13 10:24:55;;;;;;;2.40;0.93;;;;;;;18.43;94.10;101618.19;5032410;28;19913;-76
2023/08/13 10:27:21;;;;;;;0.93;0.80;;;;;;;18.43;94.17;101612.88;5031742;28;20037;-76
2023/08/13 10:29:47;;;;;;;2.50;1.13;;;;;;;18.45;93.87;101610.97;5032145;28;20419;-76
2023/08/13 10:32:16;;;;;;;2.80;0.90;;;;;;;18.46;93.62;101611.81;5031992;28;20330;-76
2023/08/13 10:34:47;;;;;;;1.58;0.70;;;;;;;18.46;93.81;101617.13;5031710;28;20052;-76
2023/08/13 10:37:23;;;;;;;1.65;0.98;;;;;;;18.48;93.78;101609.94;5032337;28;20083;-76
2023/08/13 10:39:54;;;;;;;2.38;1.10;;;;;;;18.49;93.53;101614.31;5032359;28;20044;-76
2023/08/13 10:42:26;;;;;;;1.55;0.90;;;;;;;18.51;93.75;101615.06;5031115;28;20368;-76
2023/08/13 10:45:04;;;;;;;2.15;0.90;;;;;;;18.51;93.51;101607.09;5031993;28;20037;-76
2023/08/13 10:47:39;;;;;;;2.72;1.00;;;;;;;18.52;93.37;101612.31;5031220;28;20036;-76
2023/08/13 10:50:15;;;;;;;2.15;0.88;;;;;;;18.52;93.11;101614.97;5032156;28;20446;-76
2023/08/13 10:52:41;;;;;;;2.20;1.10;;;;;;;18.51;93.62;101610.59;5031769;28;20030;-77
2023/08/13 10:55:09;;;;;;;2.33;1.00;;;;;;;18.52;93.75;101614.09;5031864;28;20041;-76
2023/08/13 10:57:34;;;;;;;;;;;;;;;18.51;94.06;101613.25;5032094;28;20111;-76
2023/08/13 11:00:01;;;;;;;1.20;0.98;;;;;;;18.51;93.90;101610.59;5031623;28;19917;-76
2023/08/13 11:02:30;;;;;;;3.85;1.00;;;;;;;18.52;94.00;101622.03;5031336;28;20060;-76
2023/08/13 11:04:56;;;;;;;2.78;1.00;;;;;;;18.51;94.12;101615.06;5031581;28;20072;-76
2023/08/13 11:07:23;;;;;;;3.10;1.00;;;;;;;18.51;94.19;101612.41;5030922;28;20022;-76
2023/08/13 11:09:48;;;;;;;1.65;0.98;;;;;;;18.50;94.38;101614.22;5031635;28;20061;-76
2023/08/13 11:12:15;;;;;;;1.23;0.77;;;;;;;18.50;94.88;101614.22;5031303;28;20381;-76
2023/08/13 11:14:40;;;;;;;1.60;0.82;;;;;;;18.49;94.90;101604.53;5031402;28;20136;-76
2023/08/13 11:17:06;;;;;;;1.67;0.75;;;;;;;18.50;94.57;101605.38;5031574;28;20336;-76
2023/08/13 11:19:32;;;;;;;1.90;0.88;;;;;;;18.51;94.88;101596.50;5031890;28;20041;-76
2023/08/13 11:21:59;;;;;;;1.40;0.70;;;;;;;18.51;95.48;101602.63;5035656;28;20381;-76
2023/08/13 11:24:24;;;;;;;2.50;0.90;;;;;;;18.54;95.47;101606.91;5034871;28;20247;-76
2023/08/13 11:26:51;;;;;;;3.40;1.00;;;;;;;18.54;95.66;101599.81;5035533;28;20029;-76